Time;durP1;ratioP1;P1;durP2;ratioP2;P2;SDS_P1;SDS_P2;PMS_P1;PMS_P2;Temp;Humidity;BMP_temperature;BMP_pressure;BME280_temperature;BME280_humidity;BME280_pressure;Samples;Min_cycle;Max_cycle;Signal;HPM_P1;HPM_P2
2023/07/09 00:01:17;;;;;;;12.73;5.88;;;22.60;66.80;;;;;;4995857;28;20460;-66
2023/07/09 00:03:51;;;;;;;9.70;5.30;;;22.60;66.80;;;;;;4995535;28;20081;-67
2023/07/09 00:06:18;;;;;;;11.07;5.85;;;22.50;66.80;;;;;;4994725;28;20030;-66
2023/07/09 00:08:47;;;;;;;9.75;6.03;;;22.50;66.80;;;;;;4995525;28;20094;-66
2023/07/09 00:11:16;;;;;;;9.68;5.18;;;22.50;66.90;;;;;;4995764;28;20023;-67
2023/07/09 00:13:42;;;;;;;8.45;5.53;;;22.50;67.00;;;;;;4994457;28;20036;-65
2023/07/09 00:16:18;;;;;;;9.40;5.18;;;22.50;67.00;;;;;;4995387;28;20060;-67
2023/07/09 00:18:44;;;;;;;8.60;5.15;;;22.40;67.00;;;;;;4995713;28;20026;-67
2023/07/09 00:21:10;;;;;;;8.90;5.15;;;22.40;67.10;;;;;;4995374;28;20359;-67
2023/07/09 00:23:38;;;;;;;10.15;5.13;;;22.40;67.10;;;;;;5010809;28;20105;-67
2023/07/09 00:26:13;;;;;;;8.13;5.22;;;22.40;67.30;;;;;;4994534;28;20037;-65
2023/07/09 00:28:40;;;;;;;12.10;6.25;;;22.40;67.40;;;;;;4979014;28;20420;-67
2023/07/09 00:31:14;;;;;;;10.27;6.18;;;22.40;67.90;;;;;;4995578;28;20029;-67
2023/07/09 00:33:41;;;;;;;8.73;4.97;;;22.30;68.20;;;;;;4995299;28;20030;-67
2023/07/09 00:36:34;;;;;;;11.00;5.95;;;22.30;68.10;;;;;;4995120;28;20050;-67
2023/07/09 00:39:04;;;;;;;12.20;5.95;;;22.20;69.10;;;;;;4991123;28;20472;-67
2023/07/09 00:41:36;;;;;;;11.20;6.13;;;22.10;68.50;;;;;;4995274;28;20041;-65
2023/07/09 00:44:21;;;;;;;14.00;7.57;;;22.10;68.60;;;;;;4995527;28;20026;-65
2023/07/09 00:46:49;;;;;;;9.98;6.10;;;22.00;69.80;;;;;;4995767;28;20367;-67
2023/07/09 00:49:30;;;;;;;10.88;6.07;;;21.90;69.30;;;;;;4999281;28;20344;-67
2023/07/09 00:51:57;;;;;;;10.15;5.57;;;21.90;69.30;;;;;;4998160;28;20081;-67
2023/07/09 00:54:37;;;;;;;8.88;4.88;;;21.90;69.20;;;;;;4998042;28;20026;-66
2023/07/09 00:57:18;;;;;;;9.73;5.35;;;21.90;69.10;;;;;;4998883;28;20022;-66
2023/07/09 00:59:52;;;;;;;8.80;5.53;;;21.90;69.30;;;;;;4998884;28;20321;-65
2023/07/09 01:02:23;;;;;;;8.98;5.45;;;21.90;69.40;;;;;;4998859;28;20108;-68
2023/07/09 01:04:51;;;;;;;8.55;5.55;;;21.80;69.40;;;;;;4999027;28;20085;-66
2023/07/09 01:07:17;;;;;;;8.95;5.70;;;21.80;69.50;;;;;;4998459;28;20081;-65
2023/07/09 01:09:43;;;;;;;9.18;5.38;;;21.80;69.30;;;;;;4998709;28;20034;-67
2023/07/09 01:12:10;;;;;;;11.32;5.65;;;21.80;69.30;;;;;;4998401;28;20348;-67
2023/07/09 01:14:37;;;;;;;8.55;5.25;;;21.80;69.30;;;;;;4998722;28;20026;-67
2023/07/09 01:17:07;;;;;;;8.65;5.50;;;21.80;69.30;;;;;;4998740;28;20042;-66
2023/07/09 01:19:43;;;;;;;9.63;5.25;;;21.80;69.30;;;;;;4998221;28;20023;-65
2023/07/09 01:22:14;;;;;;;8.38;5.50;;;21.80;69.30;;;;;;4998237;28;20026;-65
2023/07/09 01:24:54;;;;;;;10.52;6.30;;;21.80;69.40;;;;;;4998297;28;20022;-68
2023/07/09 01:27:28;;;;;;;8.90;5.72;;;21.80;69.70;;;;;;4997153;28;20444;-66
2023/07/09 01:29:56;;;;;;;10.18;5.80;;;21.70;69.50;;;;;;4998281;28;20023;-67
2023/07/09 01:32:22;;;;;;;10.05;6.18;;;21.70;69.40;;;;;;4998004;28;20081;-67
2023/07/09 01:35:11;;;;;;;8.65;5.10;;;21.70;69.80;;;;;;4997971;28;20069;-69
2023/07/09 01:37:38;;;;;;;8.25;5.05;;;21.60;69.80;;;;;;4996867;28;20046;-66
2023/07/09 01:40:06;;;;;;;9.20;5.53;;;21.60;69.70;;;;;;4996932;28;20090;-67
2023/07/09 01:42:32;;;;;;;9.40;5.47;;;21.60;69.80;;;;;;4997781;28;20061;-68
2023/07/09 01:44:58;;;;;;;8.60;5.25;;;21.60;69.80;;;;;;4997733;28;20097;-68
2023/07/09 01:47:24;;;;;;;11.32;5.20;;;21.60;69.70;;;;;;4997718;28;20156;-67
2023/07/09 01:49:56;;;;;;;8.27;5.25;;;21.60;69.90;;;;;;4998352;28;20030;-66
2023/07/09 01:52:25;;;;;;;8.40;5.00;;;21.50;69.90;;;;;;4981244;28;20053;-67
2023/07/09 01:54:51;;;;;;;8.55;4.90;;;21.50;70.00;;;;;;4997520;28;20022;-67
2023/07/09 01:57:24;;;;;;;8.30;4.78;;;21.50;70.10;;;;;;4997493;28;20072;-65
2023/07/09 01:59:51;;;;;;;8.90;5.40;;;21.40;70.20;;;;;;4997349;28;20073;-65
2023/07/09 02:02:20;;;;;;;9.45;5.68;;;21.50;70.20;;;;;;4997987;28;20073;-67
2023/07/09 02:04:51;;;;;;;8.48;5.20;;;21.50;70.20;;;;;;4997341;28;20022;-65
2023/07/09 02:07:17;;;;;;;9.02;5.53;;;21.40;70.20;;;;;;4997714;28;20407;-65
2023/07/09 02:09:43;;;;;;;8.52;5.35;;;21.40;70.30;;;;;;4997262;28;20110;-65
2023/07/09 02:12:10;;;;;;;10.30;5.68;;;21.40;70.30;;;;;;4997255;28;20026;-67
2023/07/09 02:14:37;;;;;;;7.82;5.60;;;21.40;70.30;;;;;;4997127;28;20030;-67
2023/07/09 02:17:03;;;;;;;8.00;5.32;;;21.40;70.40;;;;;;4997327;28;20065;-67
2023/07/09 02:19:29;;;;;;;8.93;5.70;;;21.40;70.60;;;;;;4997373;28;20130;-66
2023/07/09 02:21:56;;;;;;;10.05;5.72;;;21.40;70.50;;;;;;4997592;28;20401;-65
2023/07/09 02:24:24;;;;;;;8.80;5.50;;;21.40;70.60;;;;;;4997165;28;20029;-65
2023/07/09 02:26:58;;;;;;;9.63;5.57;;;21.40;70.70;;;;;;5012357;28;20026;-66
2023/07/09 02:29:25;;;;;;;8.38;5.55;;;21.30;70.80;;;;;;4996904;28;20045;-65
2023/07/09 02:31:52;;;;;;;8.88;5.63;;;21.30;70.90;;;;;;4997155;28;20034;-67
2023/07/09 02:34:19;;;;;;;9.35;5.40;;;21.30;71.10;;;;;;4996129;28;20038;-65
2023/07/09 02:36:47;;;;;;;9.25;5.80;;;21.30;71.00;;;;;;4996915;28;20198;-67
2023/07/09 02:39:14;;;;;;;9.43;6.07;;;21.20;71.10;;;;;;4996973;28;20037;-66
2023/07/09 02:41:40;;;;;;;9.30;5.90;;;21.30;71.20;;;;;;4996947;28;20026;-67
2023/07/09 02:44:07;;;;;;;7.80;5.45;;;21.20;71.20;;;;;;4996882;28;20069;-65
2023/07/09 02:46:34;;;;;;;8.90;6.10;;;21.20;71.30;;;;;;4996483;28;20076;-68
2023/07/09 02:49:02;;;;;;;10.77;6.00;;;21.20;71.20;;;;;;4997084;28;20030;-66
2023/07/09 02:51:28;;;;;;;10.40;5.93;;;21.10;71.20;;;;;;4997057;28;20455;-66
2023/07/09 02:53:57;;;;;;;12.88;6.30;;;21.10;71.10;;;;;;4996491;28;20027;-67
2023/07/09 02:56:23;;;;;;;10.75;6.38;;;21.20;71.20;;;;;;4995281;28;20018;-66
2023/07/09 02:58:50;;;;;;;9.75;5.70;;;21.10;71.30;;;;;;4995496;28;20018;-68
2023/07/09 03:01:17;;;;;;;8.65;5.30;;;21.00;71.30;;;;;;4996832;28;20033;-66
2023/07/09 03:03:43;;;;;;;9.77;6.10;;;21.00;71.30;;;;;;4996256;28;20038;-67
2023/07/09 03:06:10;;;;;;;10.25;6.07;;;21.00;71.30;;;;;;4996120;28;20285;-67
2023/07/09 03:08:36;;;;;;;10.45;5.68;;;20.90;71.30;;;;;;4996178;28;20034;-67
2023/07/09 03:11:12;;;;;;;9.35;6.05;;;20.90;71.20;;;;;;4995413;28;20030;-67
2023/07/09 03:13:38;;;;;;;9.85;5.47;;;20.90;71.30;;;;;;4996148;28;20037;-68
2023/07/09 03:16:05;;;;;;;9.05;5.55;;;20.90;71.30;;;;;;4995959;28;20045;-68
2023/07/09 03:18:31;;;;;;;10.75;6.13;;;20.90;71.30;;;;;;4996241;28;20026;-68
2023/07/09 03:20:58;;;;;;;10.10;6.07;;;20.90;71.20;;;;;;4996080;28;20031;-68
2023/07/09 03:23:25;;;;;;;9.40;5.97;;;20.90;71.30;;;;;;4995931;28;20072;-66
2023/07/09 03:25:51;;;;;;;11.07;6.20;;;20.80;71.40;;;;;;4995876;28;20475;-68
2023/07/09 03:28:17;;;;;;;10.27;7.15;;;20.80;71.50;;;;;;4995996;28;20474;-66
2023/07/09 03:30:45;;;;;;;9.30;5.85;;;20.80;71.60;;;;;;4995927;28;20467;-66
2023/07/09 03:33:14;;;;;;;8.40;5.70;;;20.80;71.50;;;;;;4995840;28;20161;-66
2023/07/09 03:35:40;;;;;;;9.70;6.18;;;20.80;71.50;;;;;;4995565;28;20057;-67
2023/07/09 03:38:07;;;;;;;10.10;6.13;;;20.80;71.60;;;;;;4995725;28;20079;-67
2023/07/09 03:40:33;;;;;;;11.35;6.22;;;20.80;71.60;;;;;;4995780;28;20363;-67
2023/07/09 03:43:00;;;;;;;9.63;5.55;;;20.80;71.60;;;;;;4995803;28;20081;-65
2023/07/09 03:45:26;;;;;;;11.23;6.15;;;20.80;71.60;;;;;;4995655;28;20026;-65
2023/07/09 03:47:52;;;;;;;12.25;6.63;;;20.80;71.60;;;;;;4996205;28;20026;-67
2023/07/09 03:50:19;;;;;;;11.43;6.05;;;20.80;71.60;;;;;;4995976;28;20082;-67
2023/07/09 03:52:45;;;;;;;10.45;5.97;;;20.80;71.60;;;;;;4995680;28;20027;-67
2023/07/09 03:55:10;;;;;;;10.30;6.30;;;20.90;71.60;;;;;;4995822;28;20081;-67
2023/07/09 03:57:36;;;;;;;9.20;6.05;;;20.90;71.50;;;;;;4995805;28;20073;-66
2023/07/09 04:00:04;;;;;;;10.38;6.10;;;20.90;71.40;;;;;;4995647;28;20057;-66
2023/07/09 04:02:31;;;;;;;11.18;6.45;;;20.90;71.40;;;;;;4995574;28;20371;-66
2023/07/09 04:04:57;;;;;;;12.38;6.65;;;20.90;71.30;;;;;;4996017;28;20026;-66
2023/07/09 04:07:28;;;;;;;12.88;7.43;;;20.90;71.30;;;;;;4995537;28;20033;-65
2023/07/09 04:09:54;;;;;;;10.07;6.40;;;21.00;71.30;;;;;;4995526;28;20030;-66
2023/07/09 04:12:20;;;;;;;9.98;6.50;;;21.00;71.30;;;;;;4995519;28;20045;-65
2023/07/09 04:14:46;;;;;;;10.10;6.55;;;21.00;71.20;;;;;;4995719;28;20391;-66
2023/07/09 04:17:12;;;;;;;10.20;6.65;;;21.10;71.10;;;;;;4995417;28;20447;-66
2023/07/09 04:19:38;;;;;;;10.13;7.05;;;21.10;71.10;;;;;;4995492;28;20038;-67
2023/07/09 04:22:04;;;;;;;10.75;7.03;;;21.20;71.00;;;;;;4996166;28;20019;-68
2023/07/09 04:24:33;;;;;;;10.20;6.70;;;21.30;71.00;;;;;;4999449;28;20069;-68
2023/07/09 04:27:02;;;;;;;11.57;7.28;;;21.40;70.90;;;;;;4999424;28;20122;-65
2023/07/09 04:29:35;;;;;;;10.88;7.40;;;21.50;70.80;;;;;;4998289;28;20168;-67
2023/07/09 04:32:02;;;;;;;15.30;9.07;;;21.60;70.60;;;;;;4999095;28;20466;-68
2023/07/09 04:34:28;;;;;;;12.93;9.27;;;21.80;70.50;;;;;;4999016;28;20032;-65
2023/07/09 04:36:54;;;;;;;13.25;9.00;;;21.90;70.50;;;;;;4998855;28;20046;-65
2023/07/09 04:39:20;;;;;;;12.57;7.10;;;22.10;70.10;;;;;;4999520;28;20030;-67
2023/07/09 04:41:47;;;;;;;13.15;7.78;;;22.20;69.80;;;;;;5014286;28;20033;-68
2023/07/09 04:44:13;;;;;;;11.05;6.93;;;22.40;69.40;;;;;;4998817;28;20392;-68
2023/07/09 04:46:39;;;;;;;11.68;6.93;;;22.60;69.30;;;;;;4998870;28;20056;-66
2023/07/09 04:49:05;;;;;;;13.07;7.47;;;22.80;69.20;;;;;;4999350;28;20038;-67
2023/07/09 04:51:31;;;;;;;12.20;7.65;;;23.00;68.80;;;;;;4999259;28;20018;-65
2023/07/09 04:53:57;;;;;;;16.05;7.35;;;23.20;68.80;;;;;;4998684;28;20452;-65
2023/07/09 04:56:23;;;;;;;11.68;7.50;;;23.60;68.80;;;;;;4998655;28;20053;-67
2023/07/09 04:58:49;;;;;;;12.65;7.68;;;24.40;68.10;;;;;;5013879;28;20034;-65
2023/07/09 05:01:15;;;;;;;17.77;7.28;;;25.50;66.20;;;;;;4998810;28;20022;-67
2023/07/09 05:03:41;;;;;;;13.90;7.40;;;26.60;63.60;;;;;;4998794;28;20023;-66
2023/07/09 05:06:07;;;;;;;12.20;6.85;;;27.70;61.30;;;;;;4998422;28;20344;-66
2023/07/09 05:08:33;;;;;;;11.88;6.60;;;28.80;58.90;;;;;;5014618;28;20030;-68
2023/07/09 05:10:59;;;;;;;14.95;6.90;;;29.90;56.60;;;;;;4998451;28;20555;-67
2023/07/09 05:13:25;;;;;;;10.65;5.93;;;30.80;54.80;;;;;;4998381;28;20356;-67
2023/07/09 05:15:51;;;;;;;11.88;5.38;;;31.80;53.10;;;;;;4998235;28;20093;-67
2023/07/09 05:18:18;;;;;;;11.63;5.80;;;32.70;50.60;;;;;;4998249;28;20114;-67
2023/07/09 05:20:47;;;;;;;11.82;5.18;;;33.70;48.70;;;;;;4998190;28;20028;-65
2023/07/09 05:23:13;;;;;;;9.32;4.97;;;34.70;47.00;;;;;;4998422;28;20042;-67
2023/07/09 05:25:39;;;;;;;9.27;4.88;;;35.50;45.30;;;;;;4998330;28;20042;-65
2023/07/09 05:28:06;;;;;;;9.60;5.18;;;36.40;43.60;;;;;;4998110;28;20448;-67
2023/07/09 05:30:32;;;;;;;9.30;5.25;;;37.10;42.10;;;;;;4998301;28;20065;-65
2023/07/09 05:32:59;;;;;;;6.97;4.90;;;37.90;40.70;;;;;;4998531;28;20456;-68
2023/07/09 05:35:26;;;;;;;8.65;5.35;;;38.50;39.40;;;;;;4996009;28;20053;-65
2023/07/09 05:37:55;;;;;;;11.25;6.50;;;39.00;38.50;;;;;;4998387;28;20034;-68
2023/07/09 05:40:22;;;;;;;7.03;5.05;;;39.20;37.30;;;;;;4998145;28;20018;-68
2023/07/09 05:42:50;;;;;;;10.27;6.75;;;39.30;37.20;;;;;;4996867;28;20395;-65
2023/07/09 05:45:16;;;;;;;8.88;6.20;;;39.20;36.50;;;;;;4997757;28;20093;-65
2023/07/09 05:47:42;;;;;;;10.55;6.60;;;38.90;36.10;;;;;;4998287;28;20443;-67
2023/07/09 05:50:08;;;;;;;9.85;6.20;;;38.80;36.30;;;;;;4997688;28;20105;-65
2023/07/09 05:52:34;;;;;;;8.70;5.53;;;39.00;36.30;;;;;;4997595;28;20026;-68
2023/07/09 05:55:00;;;;;;;9.32;5.60;;;39.40;36.20;;;;;;4997507;28;20053;-68
2023/07/09 05:57:26;;;;;;;7.85;4.95;;;40.00;35.80;;;;;;4997811;28;20058;-66
2023/07/09 05:59:52;;;;;;;10.25;6.00;;;40.70;35.30;;;;;;4998044;28;20092;-65
2023/07/09 06:02:20;;;;;;;9.93;5.53;;;41.40;34.10;;;;;;4997736;28;20435;-68
2023/07/09 06:04:51;;;;;;;8.50;5.40;;;42.00;33.50;;;;;;4997393;28;20101;-68
2023/07/09 06:07:18;;;;;;;7.80;5.45;;;42.60;32.80;;;;;;4997370;28;20444;-65
2023/07/09 06:09:45;;;;;;;7.93;5.47;;;43.10;31.90;;;;;;4997319;28;20015;-66
2023/07/09 06:12:12;;;;;;;8.75;5.80;;;43.30;31.00;;;;;;4996403;28;20034;-67
2023/07/09 06:14:38;;;;;;;9.85;6.03;;;43.40;31.00;;;;;;4997220;28;20404;-67
2023/07/09 06:17:04;;;;;;;9.52;5.82;;;43.40;30.80;;;;;;4997700;28;20157;-68
2023/07/09 06:19:30;;;;;;;10.50;5.43;;;43.50;30.50;;;;;;4997736;28;20018;-68
2023/07/09 06:21:56;;;;;;;8.18;5.50;;;43.40;30.30;;;;;;5012499;28;20027;-65
2023/07/09 06:24:22;;;;;;;11.88;6.38;;;43.40;30.20;;;;;;4996964;28;20018;-66
2023/07/09 06:26:48;;;;;;;10.02;6.45;;;43.40;29.80;;;;;;4996163;28;20030;-66
2023/07/09 06:29:15;;;;;;;8.68;6.20;;;43.60;29.50;;;;;;4996908;28;20022;-67
2023/07/09 06:31:42;;;;;;;8.80;6.35;;;43.70;29.00;;;;;;4996898;28;20030;-65
2023/07/09 06:34:09;;;;;;;7.85;5.63;;;43.50;28.90;;;;;;5012189;28;20049;-67
2023/07/09 06:36:36;;;;;;;8.57;5.57;;;43.80;29.00;;;;;;4996364;28;20492;-67
2023/07/09 06:39:02;;;;;;;7.97;5.82;;;44.00;28.40;;;;;;4997284;28;20026;-67
2023/07/09 06:41:29;;;;;;;8.88;6.40;;;44.40;28.00;;;;;;4996731;28;20094;-67
2023/07/09 06:43:55;;;;;;;8.70;5.85;;;44.60;27.60;;;;;;4996879;28;20037;-65
2023/07/09 06:46:21;;;;;;;10.30;6.03;;;45.00;27.20;;;;;;4996715;28;20014;-65
2023/07/09 06:48:47;;;;;;;9.88;6.20;;;44.80;26.70;;;;;;4996548;28;20101;-65
2023/07/09 06:51:13;;;;;;;10.30;6.18;;;43.50;27.60;;;;;;4996475;28;20037;-67
2023/07/09 06:53:39;;;;;;;10.40;6.78;;;42.00;29.00;;;;;;4996710;28;20052;-67
2023/07/09 06:56:06;;;;;;;9.75;6.70;;;40.20;31.00;;;;;;4996392;28;20023;-65
2023/07/09 06:58:33;;;;;;;10.77;6.93;;;38.70;33.00;;;;;;4996592;28;20109;-69
2023/07/09 07:01:04;;;;;;;12.40;7.45;;;37.00;35.20;;;;;;4996687;28;20095;-65
2023/07/09 07:03:32;;;;;;;9.35;6.28;;;35.60;37.60;;;;;;4996853;28;20052;-67
2023/07/09 07:05:58;;;;;;;10.15;6.93;;;34.40;39.50;;;;;;4996452;28;20041;-65
2023/07/09 07:08:25;;;;;;;11.15;6.50;;;33.50;41.20;;;;;;4996241;28;20030;-65
2023/07/09 07:11:03;;;;;;;10.70;6.07;;;33.00;42.30;;;;;;4996491;28;20105;-67
2023/07/09 07:13:34;;;;;;;9.13;6.10;;;33.00;42.90;;;;;;4996221;28;20045;-67
2023/07/09 07:16:02;;;;;;;11.52;7.10;;;33.00;43.20;;;;;;4996051;28;20030;-67
2023/07/09 07:18:29;;;;;;;10.35;6.70;;;33.00;43.50;;;;;;4996329;28;20101;-67
2023/07/09 07:20:55;;;;;;;8.80;6.68;;;32.90;43.80;;;;;;4996579;28;20027;-67
2023/07/09 07:23:23;;;;;;;9.60;6.75;;;32.90;44.00;;;;;;4996059;28;20022;-68
2023/07/09 07:25:49;;;;;;;10.52;6.40;;;33.00;44.00;;;;;;4995874;28;20495;-67
2023/07/09 07:28:15;;;;;;;9.90;6.57;;;33.10;43.90;;;;;;4995926;28;20022;-67
2023/07/09 07:30:42;;;;;;;11.02;6.38;;;33.20;43.70;;;;;;4995904;28;20034;-66
2023/07/09 07:33:09;;;;;;;9.57;6.28;;;33.30;43.70;;;;;;4996186;28;20117;-66
2023/07/09 07:35:36;;;;;;;9.57;6.30;;;33.30;43.80;;;;;;4995651;28;20047;-67
2023/07/09 07:38:04;;;;;;;10.27;7.10;;;33.40;43.70;;;;;;4996050;28;20085;-67
2023/07/09 07:40:32;;;;;;;11.27;7.25;;;33.40;43.80;;;;;;4995882;28;20022;-66
2023/07/09 07:42:58;;;;;;;10.55;6.40;;;33.40;43.70;;;;;;4996068;28;20060;-66
2023/07/09 07:45:24;;;;;;;10.38;7.15;;;33.40;43.80;;;;;;4995714;28;20022;-69
2023/07/09 07:47:55;;;;;;;10.35;6.50;;;33.40;43.80;;;;;;4995732;28;20498;-66
2023/07/09 07:50:21;;;;;;;10.07;6.68;;;33.30;43.90;;;;;;4996259;28;20102;-67
2023/07/09 07:52:49;;;;;;;9.38;6.40;;;33.20;44.10;;;;;;4995742;28;20097;-67
2023/07/09 07:55:16;;;;;;;9.80;6.75;;;33.10;44.30;;;;;;4995899;28;20037;-67
2023/07/09 07:57:42;;;;;;;10.43;6.32;;;33.20;44.50;;;;;;5012761;28;20359;-66
2023/07/09 08:00:09;;;;;;;8.73;6.15;;;33.20;44.40;;;;;;4999669;28;20018;-67
2023/07/09 08:02:34;;;;;;;11.93;6.55;;;33.30;44.10;;;;;;4999678;28;20018;-66
2023/07/09 08:05:00;;;;;;;12.50;7.03;;;33.20;44.10;;;;;;4999779;28;20034;-67
2023/07/09 08:07:26;;;;;;;8.93;5.97;;;33.10;44.40;;;;;;4999866;28;20041;-66
2023/07/09 08:09:52;;;;;;;10.57;6.35;;;33.00;44.50;;;;;;4999511;28;20022;-66
2023/07/09 08:12:18;;;;;;;10.55;6.60;;;33.00;44.70;;;;;;4999508;28;20080;-66
2023/07/09 08:14:46;;;;;;;8.48;5.93;;;33.10;44.70;;;;;;4999866;28;20026;-67
2023/07/09 08:17:12;;;;;;;10.68;5.90;;;33.20;44.70;;;;;;4999717;28;20459;-67
2023/07/09 08:19:49;;;;;;;10.25;6.20;;;33.30;44.40;;;;;;4999429;28;20026;-65
2023/07/09 08:22:16;;;;;;;9.40;5.72;;;33.40;44.10;;;;;;4999344;28;20018;-67
2023/07/09 08:24:42;;;;;;;12.30;6.53;;;33.40;44.00;;;;;;4999211;28;20403;-67
2023/07/09 08:27:09;;;;;;;8.30;6.10;;;33.30;43.90;;;;;;4999500;28;20052;-67
2023/07/09 08:29:35;;;;;;;10.48;7.07;;;33.20;43.90;;;;;;4999136;28;20019;-68
2023/07/09 08:32:03;;;;;;;10.45;6.63;;;33.10;44.00;;;;;;4999705;28;20053;-66
2023/07/09 08:34:29;;;;;;;10.18;5.95;;;33.00;44.20;;;;;;4999317;28;20112;-68
2023/07/09 08:36:55;;;;;;;9.57;6.30;;;32.90;44.50;;;;;;4998757;28;20100;-68
2023/07/09 08:39:21;;;;;;;9.43;5.93;;;32.90;44.50;;;;;;4999287;28;20032;-66
2023/07/09 08:42:00;;;;;;;10.65;7.10;;;33.00;44.50;;;;;;4999002;28;20344;-66
2023/07/09 08:45:02;;;;;;;8.70;6.03;;;33.10;44.40;;;;;;4999184;28;20109;-68
2023/07/09 08:48:08;;;;;;;10.27;6.20;;;33.10;44.30;;;;;;4999169;28;20041;-66
2023/07/09 08:50:45;;;;;;;11.68;6.72;;;33.10;43.70;;;;;;4999118;28;20057;-68
2023/07/09 08:53:39;;;;;;;12.98;6.25;;;33.20;44.10;;;;;;4999350;28;20344;-67
2023/07/09 08:56:13;;;;;;;9.40;6.32;;;33.20;43.10;;;;;;4994699;28;20046;-66
2023/07/09 08:58:41;;;;;;;10.57;6.10;;;33.30;44.10;;;;;;4998588;28;20035;-68
2023/07/09 09:01:33;;;;;;;11.98;7.05;;;33.30;44.10;;;;;;4998851;28;20341;-68
2023/07/09 09:04:21;;;;;;;11.03;7.83;;;33.40;43.90;;;;;;4998646;28;20077;-66
2023/07/09 09:06:56;;;;;;;10.77;6.63;;;33.10;44.10;;;;;;4998513;28;20101;-67
2023/07/09 09:09:35;;;;;;;9.77;6.70;;;33.00;44.30;;;;;;4996762;28;20093;-66
2023/07/09 09:12:13;;;;;;;10.00;7.00;;;33.00;44.30;;;;;;4997034;28;20337;-67
2023/07/09 09:14:43;;;;;;;10.32;6.30;;;33.00;44.30;;;;;;4998207;28;20022;-66
2023/07/09 09:17:16;;;;;;;9.93;6.72;;;33.00;44.40;;;;;;4998794;28;20040;-67
2023/07/09 09:19:55;;;;;;;9.63;6.03;;;33.10;43.70;;;;;;4997724;28;20026;-68
2023/07/09 09:22:46;;;;;;;9.93;6.05;;;33.00;43.60;;;;;;4997210;28;20034;-68
2023/07/09 09:25:27;;;;;;;11.52;5.93;;;33.00;44.00;;;;;;4996672;28;20443;-67
2023/07/09 09:27:53;;;;;;;10.48;6.85;;;33.20;44.10;;;;;;4998488;28;20053;-66
2023/07/09 09:30:23;;;;;;;11.98;6.45;;;33.20;43.70;;;;;;4998137;28;20030;-68
2023/07/09 09:32:55;;;;;;;10.27;6.03;;;33.20;43.90;;;;;;4997049;28;20035;-66
2023/07/09 09:35:33;;;;;;;10.98;6.43;;;33.30;44.10;;;;;;4996818;28;20130;-66
2023/07/09 09:38:00;;;;;;;9.50;6.80;;;33.40;44.10;;;;;;4997886;28;20073;-66
2023/07/09 09:40:29;;;;;;;8.93;5.88;;;33.40;43.80;;;;;;4998152;28;20022;-68
2023/07/09 09:42:59;;;;;;;9.95;6.32;;;33.20;44.10;;;;;;4997872;28;20029;-66
2023/07/09 09:45:38;;;;;;;14.50;6.78;;;33.20;44.20;;;;;;4998048;28;20022;-66
2023/07/09 09:48:19;;;;;;;9.52;6.30;;;33.10;44.30;;;;;;4998056;28;20044;-67
2023/07/09 09:50:46;;;;;;;8.98;5.90;;;33.00;44.30;;;;;;4998264;28;20073;-68
2023/07/09 09:53:22;;;;;;;8.45;5.78;;;33.00;44.40;;;;;;4997718;28;20030;-66
2023/07/09 09:55:49;;;;;;;9.23;5.88;;;33.00;44.40;;;;;;4997669;28;20034;-68
2023/07/09 09:58:17;;;;;;;9.07;5.88;;;33.00;44.40;;;;;;4996582;28;20076;-68
2023/07/09 10:00:51;;;;;;;10.25;6.63;;;33.00;44.50;;;;;;4996595;28;20026;-68
2023/07/09 10:03:18;;;;;;;9.20;6.10;;;33.00;44.40;;;;;;4997755;28;20026;-68
2023/07/09 10:05:51;;;;;;;9.65;6.32;;;33.00;44.50;;;;;;4997356;28;20042;-68
2023/07/09 10:08:40;;;;;;;9.18;6.25;;;32.90;44.50;;;;;;4997462;28;20071;-65
2023/07/09 10:11:44;;;;;;;10.45;6.03;;;32.80;44.70;;;;;;4978706;28;20045;-65
2023/07/09 10:14:15;;;;;;;;;;;32.90;44.60;;;;;;4986283;28;20042;-67
2023/07/09 10:16:48;;;;;;;8.15;6.20;;;32.90;44.60;;;;;;4997178;28;20327;-66
2023/07/09 10:19:30;;;;;;;10.25;6.25;;;32.90;44.50;;;;;;4997457;28;20105;-67
2023/07/09 10:22:19;;;;;;;9.67;6.43;;;32.80;44.30;;;;;;4997342;28;20049;-65
2023/07/09 10:25:27;;;;;;;9.52;6.00;;;32.70;44.40;;;;;;4996700;28;20042;-67
2023/07/09 10:28:38;;;;;;;9.40;6.32;;;32.60;44.40;;;;;;4981176;28;20043;-65
2023/07/09 10:31:13;;;;;;;8.43;5.95;;;32.70;44.30;;;;;;4997256;28;20038;-67
2023/07/09 10:34:07;;;;;;;10.30;6.25;;;32.70;44.40;;;;;;4996956;28;20499;-67
2023/07/09 10:36:56;;;;;;;11.60;7.25;;;32.80;43.90;;;;;;4996593;28;20473;-66
2023/07/09 10:39:54;;;;;;;11.13;6.22;;;32.70;42.80;;;;;;4991503;28;20049;-66
2023/07/09 10:42:46;;;;;;;9.13;5.85;;;32.60;43.90;;;;;;4994725;28;20087;-67
2023/07/09 10:45:22;;;;;;;9.00;5.88;;;32.80;43.80;;;;;;4997215;28;20038;-66
2023/07/09 10:47:53;;;;;;;10.15;5.95;;;32.80;44.00;;;;;;4996907;28;20018;-66
2023/07/09 10:50:34;;;;;;;11.85;6.35;;;32.90;43.80;;;;;;4996926;28;20034;-67
2023/07/09 10:53:25;;;;;;;9.05;6.07;;;33.00;44.00;;;;;;4997101;28;20310;-67
2023/07/09 10:55:59;;;;;;;10.02;6.13;;;33.00;43.90;;;;;;4995070;28;20041;-66
2023/07/09 10:58:27;;;;;;;9.52;6.30;;;32.90;44.00;;;;;;4996957;28;20022;-66
2023/07/09 11:00:54;;;;;;;8.68;5.75;;;32.90;44.20;;;;;;4996423;28;20034;-67
2023/07/09 11:03:26;;;;;;;8.73;5.68;;;32.90;44.30;;;;;;4995802;28;20030;-67
2023/07/09 11:05:53;;;;;;;8.48;6.15;;;32.90;44.50;;;;;;4995377;28;20049;-67
2023/07/09 11:08:37;;;;;;;10.25;6.10;;;33.00;44.40;;;;;;4996773;28;20040;-68
2023/07/09 11:11:10;;;;;;;8.82;6.00;;;33.00;44.40;;;;;;4996570;28;20026;-66
2023/07/09 11:13:41;;;;;;;9.20;6.18;;;33.00;44.30;;;;;;4996209;28;20034;-66
2023/07/09 11:16:12;;;;;;;8.85;5.38;;;33.00;44.40;;;;;;4996653;28;20029;-68
2023/07/09 11:18:38;;;;;;;8.90;5.85;;;33.00;44.60;;;;;;4996302;28;20034;-66
2023/07/09 11:21:17;;;;;;;9.98;6.03;;;33.00;44.70;;;;;;4996407;28;20025;-68
2023/07/09 11:23:51;;;;;;;9.13;5.85;;;33.20;44.50;;;;;;4995169;28;20037;-68
2023/07/09 11:26:25;;;;;;;9.52;6.00;;;33.20;44.50;;;;;;4995052;28;20026;-66
2023/07/09 11:28:54;;;;;;;10.00;6.65;;;33.30;44.20;;;;;;4995957;28;20443;-67
2023/07/09 11:31:40;;;;;;;8.40;6.03;;;33.30;43.90;;;;;;4995225;28;20111;-67
2023/07/09 11:34:29;;;;;;;9.77;6.25;;;33.20;43.70;;;;;;4995015;28;20113;-66
2023/07/09 11:36:55;;;;;;;9.05;5.68;;;33.10;43.70;;;;;;4994677;28;20512;-66
2023/07/09 11:39:36;;;;;;;8.80;5.65;;;33.10;43.80;;;;;;4995849;28;20110;-67
2023/07/09 11:42:02;;;;;;;8.45;5.53;;;33.20;43.90;;;;;;4996168;28;20050;-66
2023/07/09 11:44:42;;;;;;;7.20;5.35;;;33.30;43.70;;;;;;4996246;28;20026;-67
2023/07/09 11:47:25;;;;;;;7.70;5.47;;;33.20;43.60;;;;;;4996389;28;20034;-67
2023/07/09 11:50:06;;;;;;;10.40;6.55;;;33.30;43.50;;;;;;4996100;28;20034;-65
2023/07/09 11:52:47;;;;;;;7.88;5.40;;;33.20;43.40;;;;;;4994801;28;20155;-67
2023/07/09 11:55:36;;;;;;;8.18;6.03;;;33.20;43.40;;;;;;4995843;28;20237;-67
2023/07/09 11:58:04;;;;;;;10.45;6.18;;;33.20;43.50;;;;;;4995709;28;20081;-67
2023/07/09 12:00:58;;;;;;;11.27;5.30;;;33.20;42.90;;;;;;4994704;28;20031;-67
2023/07/09 12:03:29;;;;;;;8.57;5.30;;;33.10;42.80;;;;;;4994321;28;20041;-65
2023/07/09 12:06:00;;;;;;;9.95;5.97;;;33.10;42.90;;;;;;4995686;28;20404;-67
2023/07/09 12:08:33;;;;;;;9.95;5.45;;;33.10;42.40;;;;;;4995018;28;20101;-67
2023/07/09 12:11:00;;;;;;;9.48;5.90;;;33.10;42.10;;;;;;4995851;28;20041;-67
2023/07/09 12:13:26;;;;;;;8.27;5.20;;;33.00;42.20;;;;;;4996093;28;20038;-67
2023/07/09 12:15:52;;;;;;;8.32;5.88;;;33.10;42.00;;;;;;4995729;28;20113;-66
2023/07/09 12:18:18;;;;;;;9.52;5.72;;;33.00;42.00;;;;;;4994499;28;20508;-66
2023/07/09 12:20:53;;;;;;;9.48;5.82;;;33.00;42.00;;;;;;4995741;28;20105;-66
2023/07/09 12:23:30;;;;;;;8.57;5.75;;;33.00;42.40;;;;;;4994589;28;20023;-66
2023/07/09 12:26:00;;;;;;;10.63;5.70;;;33.10;42.80;;;;;;4995603;28;20380;-67
2023/07/09 12:28:28;;;;;;;7.88;5.53;;;33.20;42.80;;;;;;4996271;28;20026;-68
2023/07/09 12:30:54;;;;;;;8.68;5.63;;;33.30;42.80;;;;;;4995666;28;20535;-68
2023/07/09 12:33:23;;;;;;;10.00;6.13;;;33.30;43.10;;;;;;4995831;28;20026;-68
2023/07/09 12:36:00;;;;;;;8.80;6.15;;;33.20;43.30;;;;;;4994912;28;20046;-67
2023/07/09 12:38:30;;;;;;;9.95;6.00;;;33.10;43.60;;;;;;4995568;28;20073;-67
2023/07/09 12:40:59;;;;;;;9.48;6.20;;;33.10;43.70;;;;;;4978153;28;20030;-68
2023/07/09 12:43:29;;;;;;;9.43;6.30;;;33.10;43.80;;;;;;4995634;28;20057;-67
2023/07/09 12:45:57;;;;;;;8.80;5.80;;;33.10;44.00;;;;;;4981747;28;20023;-67
2023/07/09 12:48:30;;;;;;;7.63;5.22;;;33.20;44.00;;;;;;4997968;28;20077;-66
2023/07/09 12:51:00;;;;;;;9.80;6.10;;;33.20;43.90;;;;;;4998766;28;20027;-68
2023/07/09 12:53:28;;;;;;;9.40;6.15;;;33.20;43.60;;;;;;4999040;28;20121;-68
2023/07/09 12:56:00;;;;;;;8.50;5.80;;;33.30;43.30;;;;;;4998660;28;20110;-66
2023/07/09 12:58:29;;;;;;;8.87;5.87;;;33.30;43.10;;;;;;4998664;28;20068;-67
2023/07/09 13:00:58;;;;;;;9.98;6.30;;;33.30;42.90;;;;;;4998652;28;20019;-65